createdAt,value
2022-08-11T00:02:04.195Z,2.40
2022-08-11T00:05:14.390Z,2.47
2022-08-11T00:08:26.270Z,2.30
2022-08-11T00:11:46.311Z,2.55
2022-08-11T00:15:01.390Z,2.60
2022-08-11T00:18:07.259Z,3.00
2022-08-11T00:21:14.393Z,2.63
2022-08-11T00:24:21.536Z,2.42
2022-08-11T00:27:35.752Z,2.50
2022-08-11T00:30:42.363Z,2.67
2022-08-11T00:33:53.798Z,2.72
2022-08-11T00:37:08.095Z,2.47
2022-08-11T00:40:42.062Z,2.38
2022-08-11T00:44:30.588Z,2.90
2022-08-11T00:48:12.214Z,2.30
2022-08-11T00:52:25.260Z,2.55
2022-08-11T00:56:13.834Z,2.30
2022-08-11T00:59:50.184Z,2.38
2022-08-11T01:03:10.803Z,2.40
2022-08-11T01:06:51.550Z,2.22
2022-08-11T01:10:22.727Z,2.33
2022-08-11T01:14:40.886Z,2.20
2022-08-11T01:18:40.340Z,2.50
2022-08-11T01:22:01.477Z,2.22
2022-08-11T01:25:57.092Z,2.60
2022-08-11T01:29:21.677Z,2.70
2022-08-11T01:33:23.990Z,2.55
2022-08-11T01:37:03.194Z,2.50
2022-08-11T01:40:49.090Z,2.38
2022-08-11T01:44:22.109Z,2.47
2022-08-11T01:47:52.868Z,2.30
2022-08-11T01:51:17.208Z,2.53
2022-08-11T01:54:32.771Z,2.20
2022-08-11T01:57:48.002Z,1.98
2022-08-11T02:01:38.013Z,2.40
2022-08-11T02:05:15.443Z,2.72
2022-08-11T02:09:08.116Z,2.35
2022-08-11T02:12:32.860Z,2.35
2022-08-11T02:15:46.801Z,2.28
2022-08-11T02:19:37.609Z,2.55
2022-08-11T02:23:58.644Z,2.50
2022-08-11T02:27:23.924Z,2.30
2022-08-11T02:30:35.875Z,2.38
2022-08-11T02:33:42.533Z,2.58
2022-08-11T02:37:23.549Z,2.25
2022-08-11T02:41:01.313Z,2.33
2022-08-11T02:44:30.464Z,2.50
2022-08-11T02:48:07.693Z,2.60
2022-08-11T02:51:37.178Z,2.40
2022-08-11T02:55:11.568Z,2.50
2022-08-11T02:59:20.813Z,2.35
2022-08-11T03:02:32.248Z,2.35
2022-08-11T03:06:17.572Z,2.45
2022-08-11T03:09:41.138Z,2.20
2022-08-11T03:13:39.995Z,2.40
2022-08-11T03:17:17.531Z,2.53
2022-08-11T03:20:52.255Z,2.25
2022-08-11T03:24:21.804Z,2.45
2022-08-11T03:27:41.203Z,2.50
2022-08-11T03:31:14.008Z,2.35
2022-08-11T03:34:26.485Z,2.47
2022-08-11T03:38:01.601Z,2.45
2022-08-11T03:42:02.211Z,2.47
2022-08-11T03:45:26.969Z,2.60
2022-08-11T03:49:07.444Z,2.35
2022-08-11T03:53:04.297Z,2.35
2022-08-11T03:56:48.872Z,2.38
2022-08-11T04:00:25.327Z,2.17
2022-08-11T04:04:00.740Z,2.60
2022-08-11T04:07:52.197Z,2.70
2022-08-11T04:11:25.830Z,2.50
2022-08-11T04:15:14.529Z,2.58
2022-08-11T04:18:51.871Z,2.40
2022-08-11T04:22:47.122Z,2.85
2022-08-11T04:26:35.859Z,2.53
2022-08-11T04:30:05.007Z,2.70
2022-08-11T04:33:36.684Z,2.97
2022-08-11T04:37:34.782Z,2.60
2022-08-11T04:41:26.991Z,2.63
2022-08-11T04:44:57.563Z,3.05
2022-08-11T04:48:55.343Z,2.50
2022-08-11T04:53:12.277Z,2.72
2022-08-11T04:56:44.321Z,2.70
2022-08-11T05:00:27.555Z,2.63
2022-08-11T05:04:05.399Z,2.92
2022-08-11T05:07:32.743Z,2.95
2022-08-11T05:11:15.576Z,3.30
2022-08-11T05:15:09.862Z,3.28
2022-08-11T05:18:38.925Z,2.80
2022-08-11T05:22:12.079Z,2.70
2022-08-11T05:26:44.801Z,2.95
2022-08-11T05:30:14.498Z,4.57
2022-08-11T05:34:13.457Z,4.25
2022-08-11T05:37:32.352Z,4.13
2022-08-11T05:41:00.136Z,3.20
2022-08-11T05:44:24.486Z,3.50
2022-08-11T05:47:49.018Z,3.00
2022-08-11T05:51:22.041Z,3.22
2022-08-11T05:54:54.634Z,2.92
2022-08-11T05:58:03.910Z,3.65
2022-08-11T06:01:12.305Z,3.05
2022-08-11T06:04:24.488Z,3.10
2022-08-11T06:07:48.879Z,3.30
2022-08-11T06:11:04.221Z,3.13
2022-08-11T06:14:11.078Z,2.92
2022-08-11T06:17:27.302Z,3.20
2022-08-11T06:20:51.540Z,3.33
2022-08-11T06:23:57.285Z,2.92
2022-08-11T06:27:12.785Z,3.20
2022-08-11T06:30:19.666Z,3.30
2022-08-11T06:33:44.091Z,3.05
2022-08-11T06:37:15.116Z,3.20
2022-08-11T06:41:11.859Z,2.90
2022-08-11T06:44:30.248Z,2.80
2022-08-11T06:47:36.334Z,2.80
2022-08-11T06:51:11.798Z,2.60
2022-08-11T06:54:17.855Z,2.75
2022-08-11T06:57:42.616Z,2.35
2022-08-11T07:00:49.998Z,2.38
2022-08-11T07:04:06.799Z,2.60
2022-08-11T07:08:33.034Z,2.40
2022-08-11T07:12:30.771Z,2.70
2022-08-11T07:16:10.923Z,2.40
2022-08-11T07:19:28.144Z,2.08
2022-08-11T07:22:54.241Z,2.72
2022-08-11T07:26:20.014Z,3.00
2022-08-11T07:29:27.387Z,2.50
2022-08-11T07:32:38.519Z,2.67
2022-08-11T07:35:50.542Z,2.50
2022-08-11T07:38:56.760Z,2.10
2022-08-11T07:42:09.465Z,2.40
2022-08-11T07:45:33.849Z,2.15
2022-08-11T07:49:00.669Z,1.85
2022-08-11T07:52:25.191Z,2.00
2022-08-11T07:55:51.483Z,1.88
2022-08-11T07:59:16.115Z,2.05
2022-08-11T08:02:41.256Z,2.00
2022-08-11T08:06:07.511Z,2.08
2022-08-11T08:09:53.717Z,2.00
2022-08-11T08:13:18.763Z,1.80
2022-08-11T08:16:43.384Z,1.73
2022-08-11T08:19:50.008Z,1.95
2022-08-11T08:22:59.615Z,1.98
2022-08-11T08:26:31.334Z,1.88
2022-08-11T08:29:56.877Z,1.80
2022-08-11T08:33:04.096Z,1.92
2022-08-11T08:36:13.129Z,1.98
2022-08-11T08:39:23.194Z,2.40
2022-08-11T08:42:33.470Z,2.17
2022-08-11T08:45:40.475Z,2.33
2022-08-11T08:48:47.776Z,2.47
2022-08-11T08:52:21.094Z,2.33
2022-08-11T08:55:21.503Z,2.28
2022-08-11T08:58:28.367Z,2.50
2022-08-11T09:01:57.651Z,2.40
2022-08-11T09:05:05.225Z,1.80
2022-08-11T09:08:11.468Z,1.92
2022-08-11T09:11:36.588Z,2.15
2022-08-11T09:15:05.338Z,1.70
2022-08-11T09:18:12.973Z,1.70
2022-08-11T09:21:46.332Z,1.80
2022-08-11T09:25:08.162Z,1.83
2022-08-11T09:28:16.399Z,1.85
2022-08-11T09:31:23.175Z,1.65
2022-08-11T09:34:29.276Z,2.00
2022-08-11T09:37:56.389Z,1.73
2022-08-11T09:41:09.613Z,1.65
2022-08-11T09:44:35.558Z,1.35
2022-08-11T09:47:43.488Z,1.40
2022-08-11T09:50:54.577Z,1.30
2022-08-11T09:54:06.733Z,1.27
2022-08-11T09:57:31.623Z,1.38
2022-08-11T10:00:40.500Z,1.98
2022-08-11T10:03:47.254Z,1.58
2022-08-11T10:07:04.802Z,1.27
2022-08-11T10:10:11.815Z,1.70
2022-08-11T10:14:30.534Z,1.50
2022-08-11T10:16:52.574Z,1.40
2022-08-11T10:20:05.255Z,1.70
2022-08-11T10:23:31.855Z,1.42
2022-08-11T10:27:00.167Z,1.50
2022-08-11T10:30:26.784Z,1.40
2022-08-11T10:33:59.126Z,1.45
2022-08-11T10:37:07.942Z,1.30
2022-08-11T10:40:22.657Z,1.20
2022-08-11T10:44:02.556Z,1.30
2022-08-11T10:47:13.214Z,1.40
2022-08-11T10:50:37.912Z,1.25
2022-08-11T10:54:11.464Z,1.27
2022-08-11T10:57:37.963Z,1.20
2022-08-11T11:00:45.737Z,1.15
2022-08-11T11:03:59.583Z,1.20
2022-08-11T11:07:24.369Z,1.13
2022-08-11T11:10:31.190Z,1.25
2022-08-11T11:13:57.269Z,1.15
2022-08-11T11:17:22.476Z,1.40
2022-08-11T11:20:47.774Z,1.48
2022-08-11T11:24:43.057Z,1.20
2022-08-11T11:28:28.464Z,1.30
2022-08-11T11:32:06.225Z,1.45
2022-08-11T11:36:18.360Z,1.50
2022-08-11T11:39:28.131Z,1.40
2022-08-11T11:42:34.277Z,1.42
2022-08-11T11:45:41.799Z,1.33
2022-08-11T11:48:47.930Z,1.40
2022-08-11T11:51:54.165Z,1.50
2022-08-11T11:55:00.606Z,1.40
2022-08-11T11:58:25.868Z,1.30
2022-08-11T12:01:34.217Z,1.38
2022-08-11T12:04:45.533Z,1.50
2022-08-11T12:08:13.064Z,1.33
2022-08-11T12:11:41.197Z,1.30
2022-08-11T12:14:49.266Z,1.33
2022-08-11T12:17:56.840Z,1.30
2022-08-11T12:21:04.534Z,1.42
2022-08-11T12:24:29.980Z,1.55
2022-08-11T12:27:36.479Z,1.65
2022-08-11T12:30:50.706Z,1.40
2022-08-11T12:34:09.591Z,1.70
2022-08-11T12:37:19.519Z,1.25
2022-08-11T12:41:15.723Z,1.35
2022-08-11T12:44:31.145Z,1.30
2022-08-11T12:48:09.598Z,1.40
2022-08-11T12:52:00.832Z,1.30
2022-08-11T12:55:35.315Z,1.38
2022-08-11T12:58:42.782Z,1.20
2022-08-11T13:02:07.246Z,1.40
2022-08-11T13:05:15.470Z,1.60
2022-08-11T13:08:25.195Z,1.40
2022-08-11T13:11:56.041Z,1.58
2022-08-11T13:15:04.657Z,1.45
2022-08-11T13:18:11.795Z,1.38
2022-08-11T13:21:26.571Z,1.20
2022-08-11T13:24:39.061Z,1.10
2022-08-11T13:27:49.063Z,1.15
2022-08-11T13:31:15.510Z,1.00
2022-08-11T13:34:27.058Z,0.90
2022-08-11T13:38:18.458Z,0.93
2022-08-11T13:41:02.643Z,0.90
2022-08-11T13:44:15.544Z,0.85
2022-08-11T13:47:25.250Z,0.90
2022-08-11T13:50:55.820Z,0.80
2022-08-11T13:54:20.330Z,0.77
2022-08-11T13:58:08.940Z,0.73
2022-08-11T14:00:56.141Z,0.60
2022-08-11T14:04:32.445Z,0.70
2022-08-11T14:07:42.770Z,0.70
2022-08-11T14:12:23.070Z,0.80
2022-08-11T14:14:38.781Z,0.70
2022-08-11T14:17:47.879Z,0.80
2022-08-11T14:21:16.030Z,0.70
2022-08-11T14:24:23.770Z,0.90
2022-08-11T14:28:30.144Z,0.90
2022-08-11T14:31:01.261Z,0.98
2022-08-11T14:34:10.659Z,0.60
2022-08-11T14:37:24.609Z,0.98
2022-08-11T14:40:49.152Z,0.68
2022-08-11T14:44:15.465Z,0.80
2022-08-11T14:47:24.066Z,0.80
2022-08-11T14:50:33.963Z,0.70
2022-08-11T14:53:40.894Z,0.80
2022-08-11T14:57:04.504Z,0.90
2022-08-11T15:00:15.718Z,0.90
2022-08-11T15:03:27.604Z,0.80
2022-08-11T15:06:34.497Z,0.70
2022-08-11T15:10:02.703Z,1.00
2022-08-11T15:13:10.679Z,0.90
2022-08-11T15:16:35.511Z,1.00
2022-08-11T15:20:03.444Z,0.90
2022-08-11T15:23:28.516Z,0.80
2022-08-11T15:26:58.727Z,0.85
2022-08-11T15:30:33.070Z,0.70
2022-08-11T15:34:00.114Z,0.82
2022-08-11T15:37:30.101Z,0.90
2022-08-11T15:40:58.309Z,0.80
2022-08-11T15:44:51.481Z,0.90
2022-08-11T15:48:05.879Z,0.70
2022-08-11T15:51:43.104Z,0.80
2022-08-11T15:55:03.377Z,0.80
2022-08-11T15:58:43.518Z,0.80
2022-08-11T16:02:17.652Z,0.80
2022-08-11T16:09:18.008Z,0.90
2022-08-11T16:13:09.152Z,0.80
2022-08-11T16:16:34.128Z,0.80
2022-08-11T16:19:59.061Z,0.80
2022-08-11T16:23:15.149Z,0.70
2022-08-11T16:27:09.026Z,0.70
2022-08-11T16:30:03.189Z,0.70
2022-08-11T16:37:44.818Z,0.70
2022-08-11T16:40:57.647Z,0.63
2022-08-11T16:44:37.778Z,0.73
2022-08-11T16:48:33.011Z,0.65
2022-08-11T16:51:42.577Z,0.85
2022-08-11T16:55:00.907Z,0.88
2022-08-11T16:58:42.942Z,0.93
2022-08-11T17:02:39.047Z,1.00
2022-08-11T17:06:19.733Z,1.30
2022-08-11T17:10:00.492Z,1.20
2022-08-11T17:14:04.906Z,1.33
2022-08-11T17:17:43.057Z,1.30
2022-08-11T17:21:59.784Z,1.30
2022-08-11T17:26:03.678Z,1.45
2022-08-11T17:29:26.534Z,1.30
2022-08-11T17:33:20.100Z,1.40
2022-08-11T17:36:55.965Z,1.40
2022-08-11T17:40:06.701Z,1.60
2022-08-11T17:43:31.324Z,1.30
2022-08-11T17:46:56.319Z,1.63
2022-08-11T17:50:14.547Z,1.80
2022-08-11T17:54:09.965Z,1.67
2022-08-11T17:57:27.903Z,1.65
2022-08-11T18:00:35.768Z,2.22
2022-08-11T18:03:42.567Z,2.30
2022-08-11T18:07:03.968Z,2.90
2022-08-11T18:10:29.217Z,2.70
2022-08-11T18:13:56.796Z,2.10
2022-08-11T18:17:21.777Z,1.83
2022-08-11T18:20:46.714Z,2.05
2022-08-11T18:24:13.580Z,1.85
2022-08-11T18:27:47.440Z,2.20
2022-08-11T18:31:29.983Z,2.00
2022-08-11T18:35:00.629Z,2.95
2022-08-11T18:38:34.937Z,3.03
2022-08-11T18:42:06.967Z,4.90
2022-08-11T18:45:45.176Z,4.78
2022-08-11T18:50:00.967Z,5.15
2022-08-11T18:53:20.620Z,4.00
2022-08-11T18:56:47.044Z,2.83
2022-08-11T19:00:12.448Z,2.83
2022-08-11T19:03:48.764Z,2.38
2022-08-11T19:07:20.525Z,2.55
2022-08-11T19:10:45.621Z,2.10
2022-08-11T19:14:10.294Z,1.83
2022-08-11T19:17:43.755Z,2.20
2022-08-11T19:21:11.036Z,1.90
2022-08-11T19:24:36.597Z,1.75
2022-08-11T19:28:03.226Z,2.30
2022-08-11T19:31:28.456Z,1.90
2022-08-11T19:34:52.994Z,1.73
2022-08-11T19:38:18.378Z,1.90
2022-08-11T19:41:57.287Z,2.30
2022-08-11T19:45:23.373Z,2.60
2022-08-11T19:48:50.195Z,2.67
2022-08-11T19:52:16.489Z,2.95
2022-08-11T19:55:41.110Z,2.50
2022-08-11T19:59:05.844Z,2.50
2022-08-11T20:02:31.120Z,2.70
2022-08-11T20:06:01.477Z,2.60
2022-08-11T20:09:28.530Z,2.70
2022-08-11T20:13:21.310Z,2.70
2022-08-11T20:16:46.065Z,2.75
2022-08-11T20:20:11.736Z,2.53
2022-08-11T20:23:37.021Z,2.55
2022-08-11T20:27:03.422Z,2.70
2022-08-11T20:30:28.699Z,2.22
2022-08-11T20:33:53.557Z,2.40
2022-08-11T20:37:19.532Z,2.22
2022-08-11T20:40:45.017Z,2.20
2022-08-11T20:44:09.919Z,2.08
2022-08-11T20:47:59.060Z,2.38
2022-08-11T20:51:22.977Z,1.77
2022-08-11T20:54:48.987Z,2.10
2022-08-11T20:58:18.270Z,1.88
2022-08-11T21:01:52.271Z,2.05
2022-08-11T21:05:19.741Z,1.98
2022-08-11T21:09:02.767Z,1.95
2022-08-11T21:12:29.062Z,2.00
2022-08-11T21:16:01.838Z,2.15
2022-08-11T21:20:00.389Z,2.60
2022-08-11T21:23:29.357Z,2.20
2022-08-11T21:27:03.599Z,2.20
2022-08-11T21:30:29.428Z,2.08
2022-08-11T21:33:54.591Z,2.42
2022-08-11T21:37:20.708Z,2.10
2022-08-11T21:40:46.780Z,2.13
2022-08-11T21:44:12.338Z,2.30
2022-08-11T21:47:43.081Z,2.28
2022-08-11T21:51:10.443Z,2.40
2022-08-11T21:54:35.384Z,2.70
2022-08-11T21:58:00.134Z,2.28
2022-08-11T22:01:24.653Z,2.63
2022-08-11T22:04:50.268Z,2.30
2022-08-11T22:08:14.808Z,2.70
2022-08-11T22:11:39.637Z,2.55
2022-08-11T22:15:04.582Z,2.50
2022-08-11T22:18:29.348Z,2.42
2022-08-11T22:22:03.170Z,2.60
2022-08-11T22:25:38.545Z,3.00
2022-08-11T22:29:03.243Z,2.88
2022-08-11T22:32:30.004Z,3.60
2022-08-11T22:35:54.410Z,2.95
2022-08-11T22:39:19.733Z,3.15
2022-08-11T22:42:44.973Z,2.97
2022-08-11T22:46:09.132Z,2.92
2022-08-11T22:49:57.222Z,2.78
2022-08-11T22:53:20.151Z,3.17
2022-08-11T22:56:47.310Z,3.10
2022-08-11T23:00:13.281Z,2.90
2022-08-11T23:03:38.691Z,2.65
2022-08-11T23:07:03.906Z,2.28
2022-08-11T23:10:28.085Z,2.20
2022-08-11T23:13:53.739Z,2.38
2022-08-11T23:17:18.059Z,2.08
2022-08-11T23:20:53.883Z,2.33
2022-08-11T23:24:20.236Z,2.47
2022-08-11T23:27:45.798Z,2.50
2022-08-11T23:31:13.659Z,2.30
2022-08-11T23:35:03.836Z,3.10
2022-08-11T23:38:35.895Z,2.75
2022-08-11T23:42:03.139Z,2.60
2022-08-11T23:45:29.177Z,2.40
2022-08-11T23:48:56.538Z,2.30
2022-08-11T23:52:22.487Z,1.77
2022-08-11T23:55:47.310Z,2.22
2022-08-11T23:59:11.481Z,2.20
